• Join FlightAware (Why Join?)
  • Login
  • US Flag 
02:57AM EDT


 

Airport Tracker/Info


-or-


 

Live Flight TrackerFlight Track Log ✈ TAM3591 ✈ 24-Jul-2013 ✈ SBBR / BSB - SBCG / CGR

Flight Track Log - Related Links

Times and Time Zones

All times are in EDT time to prevent confusion due to time zone crossing. See the TAM3591 flight status page for this flight to view local times or setup timezone preferences in your user account.

Time Position Orientation Groundspeed Altitude Reporting Facility
EDT Latitude Longitude Course Direction KTS MPH feet Rate Location/Type
07:56PM -15.8680 -47.9200 284° West  Level FlightAware
08:59PM -15.9750 -48.0673 233° Southwest  Level Estimated
08:59PM -15.8690 -47.9180 233° Southwest 30 35  Level FlightAware
09:00PM -15.8680 -47.9160 63° Northeast 29 33 360 Level FlightAware
09:00PM -15.8670 -47.9160 360° North 16 18 360 Level FlightAware
09:01PM -15.8650 -47.9160 360° North 24 28 360 Level FlightAware
09:02PM -15.8650 -47.9190 270° West 15 17 420 Level FlightAware
09:02PM -15.8650 -47.9210 270° West 32 37 420 Level FlightAware
09:03PM -15.8650 -47.9240 270° West 15 17 480 Level FlightAware
09:03PM -15.8650 -47.9250 270° West 30 35 540 Level FlightAware
09:04PM -15.8650 -47.9270 270° West 540 Level FlightAware
09:07PM -16.0021 -48.1185 233° Southwest  Level Estimated
09:07PM -15.8660 -47.9270 233° Southwest 16 18  Level FlightAware
09:07PM -15.8650 -47.9280 316° Northwest 19 22 1,080 Level FlightAware
09:10PM -15.9871 -48.0984 233° Southwest  Level Estimated
09:10PM -15.8630 -47.9250 233° Southwest 56 64  Level FlightAware
09:10PM -15.8630 -47.9150 90° East 140 161 4,620 Level FlightAware
09:11PM -15.8610 -47.8850 86° East 167 192 4,400 5,040 Climbing FlightAware
09:11PM -15.8600 -47.8630 87° East 163 188 5,400 2,100 Climbing FlightAware
09:12PM -15.8600 -47.8580 90° East 165 190 5,600 1,680 Climbing FlightAware
09:12PM -15.8690 -47.8430 122° Southeast 183 211 6,200 1,260 Climbing FlightAware
09:12PM -15.8820 -47.8400 167° South 203 234 6,400 1,140 Climbing FlightAware
09:13PM -15.9210 -47.8410 181° South 246 283 7,200 1,380 Climbing FlightAware
09:13PM -15.9600 -47.8420 181° South 281 323 8,000 1,980 Climbing FlightAware
09:14PM -15.9970 -47.8480 189° South 294 338 9,200 2,400 Climbing FlightAware
09:14PM -16.0090 -47.8590 221° Southwest 294 338 9,600 840 Climbing FlightAware
09:15PM -16.0480 -47.9140 234° Southwest 350 403 10,000 300 Climbing FlightAware
09:15PM -16.0750 -47.9540 235° Southwest 371 427 10,000 2,280 Level FlightAware
09:16PM -16.1160 -48.0140 235° Southwest 392 451 12,400 4,680 Climbing FlightAware
09:17PM -16.1660 -48.0780 231° Southwest 341 392 16,200 3,240 Climbing FlightAware
09:17PM -16.2020 -48.1180 227° Southwest 330 380 17,100 1,320 Climbing FlightAware
09:18PM -16.2420 -48.1840 238° Southwest 347 399 18,200 780 Climbing FlightAware
09:19PM -16.2700 -48.2260 235° Southwest 347 399 18,200  Level FlightAware
09:19PM -16.3080 -48.2820 235° Southwest 347 399 18,200  Level FlightAware
09:20PM -16.3360 -48.3240 235° Southwest 347 399 18,200  Level FlightAware
09:21PM -16.3640 -48.3660 235° Southwest 347 399 18,200  Level FlightAware
09:21PM -16.4020 -48.4220 235° Southwest 347 399 18,200 360 Level FlightAware
09:24PM -16.5117 -48.5832 235° Southwest  Level Estimated
09:25PM -16.5632 -48.6588 235° Southwest  Level Estimated
09:26PM -16.6145 -48.7344 235° Southwest  Level Estimated
09:27PM -16.6659 -48.8101 235° Southwest  Level Estimated
09:28PM -16.7172 -48.8858 235° Southwest  Level Estimated
09:29PM -16.7685 -48.9616 235° Southwest  Level Estimated
09:30PM -16.8198 -49.0374 235° Southwest  Level Estimated
09:31PM -16.8710 -49.1133 235° Southwest  Level Estimated
09:32PM -16.9222 -49.1892 235° Southwest  Level Estimated
09:33PM -16.9734 -49.2651 235° Southwest  Level Estimated
09:34PM -17.0245 -49.3411 235° Southwest  Level Estimated
09:35PM -17.0757 -49.4171 235° Southwest  Level Estimated
09:36PM -17.1268 -49.4932 235° Southwest  Level Estimated
09:37PM -17.1778 -49.5693 235° Southwest  Level Estimated
09:38PM -17.2289 -49.6454 235° Southwest  Level Estimated
09:39PM -17.2799 -49.7216 235° Southwest  Level Estimated
09:40PM -17.3309 -49.7978 235° Southwest  Level Estimated
09:41PM -17.3818 -49.8741 235° Southwest  Level Estimated
09:42PM -17.4327 -49.9504 235° Southwest  Level Estimated
09:43PM -17.4836 -50.0267 235° Southwest  Level Estimated
09:44PM -17.5345 -50.1031 235° Southwest  Level Estimated
09:45PM -17.5854 -50.1796 235° Southwest  Level Estimated
09:46PM -17.6362 -50.2561 235° Southwest  Level Estimated
09:47PM -17.6869 -50.3326 235° Southwest  Level Estimated
09:48PM -17.7377 -50.4092 235° Southwest  Level Estimated
09:49PM -17.7884 -50.4858 235° Southwest  Level Estimated
09:50PM -17.8391 -50.5624 235° Southwest  Level Estimated
09:51PM -17.8898 -50.6391 235° Southwest  Level Estimated
09:52PM -17.9404 -50.7159 235° Southwest  Level Estimated
09:53PM -17.9910 -50.7927 235° Southwest  Level Estimated
09:54PM -18.0416 -50.8695 235° Southwest  Level Estimated
09:55PM -18.0921 -50.9464 235° Southwest  Level Estimated
09:56PM -18.1426 -51.0233 235° Southwest  Level Estimated
09:57PM -18.1931 -51.1003 235° Southwest  Level Estimated
09:58PM -18.2435 -51.1773 235° Southwest  Level Estimated
09:58PM -18.8100 -52.0580 235° Southwest 393 452 32,000  Level FlightAware
09:58PM -18.8460 -52.1120 235° Southwest 393 452 32,000  Level FlightAware
09:59PM -18.2940 -51.2543 235° Southwest  Level Estimated
09:59PM -18.8940 -52.1880 236° Southwest 391 450 32,000  Level FlightAware
10:00PM -18.9340 -52.2510 236° Southwest 391 450 32,000  Level FlightAware
10:00PM -18.9730 -52.3100 235° Southwest 390 449 32,000  Level FlightAware
10:01PM -19.0180 -52.3820 237° Southwest 389 448 32,000  Level FlightAware
10:02PM -19.0570 -52.4410 235° Southwest 389 448 32,000  Level FlightAware
10:02PM -19.0960 -52.5020 236° Southwest 389 448 32,000  Level FlightAware
10:03PM -19.1360 -52.5650 236° Southwest 389 448 32,000  Level FlightAware
10:04PM -19.1780 -52.6300 236° Southwest 388 447 32,000  Level FlightAware
10:04PM -19.2140 -52.6880 237° Southwest 387 445 32,000  Level FlightAware
10:05PM -19.2580 -52.7630 238° Southwest 386 444 32,000  Level FlightAware
10:06PM -19.2950 -52.8250 238° Southwest 387 445 32,000  Level FlightAware
10:07PM -19.3390 -52.8980 237° Southwest 387 445 32,000  Level FlightAware
10:07PM -19.3790 -52.9650 238° Southwest 386 444 32,000  Level FlightAware
10:08PM -19.4170 -53.0280 237° Southwest 387 445 32,000  Level FlightAware
10:09PM -19.4530 -53.0900 238° Southwest 386 444 32,000  Level FlightAware
10:09PM -19.4970 -53.1640 238° Southwest 385 443 32,000  Level FlightAware
10:10PM -19.5350 -53.2260 237° Southwest 385 443 32,000 -480 Level FlightAware
10:11PM -19.5760 -53.2970 238° Southwest 409 471 31,400 -1,500 Descending FlightAware
10:11PM -19.6210 -53.3720 237° Southwest 417 480 29,900 -1,980 Descending FlightAware
10:12PM -19.6640 -53.4440 238° Southwest 392 451 28,600 -2,340 Descending FlightAware
10:13PM -19.7000 -53.5050 238° Southwest 385 443 26,800 -2,460 Descending FlightAware
10:14PM -19.7380 -53.5700 238° Southwest 374 430 25,100 -2,400 Descending FlightAware
10:14PM -19.7800 -53.6410 238° Southwest 362 417 23,300 -2,460 Descending FlightAware
10:15PM -19.8140 -53.6980 238° Southwest 351 404 21,900 -2,100 Descending FlightAware
10:16PM -19.8520 -53.7620 238° Southwest 338 389 20,400 -1,980 Descending FlightAware
10:16PM -19.8810 -53.8120 238° Southwest 327 376 19,300 -1,800 Descending FlightAware
10:17PM -19.9140 -53.8680 238° Southwest 317 365 18,100 -1,740 Descending FlightAware
10:18PM -19.9450 -53.9210 238° Southwest 346 398 17,000 -1,440 Descending FlightAware
10:18PM -19.9770 -53.9760 238° Southwest 355 409 16,300 -1,140 Descending FlightAware
10:19PM -20.0140 -54.0380 238° Southwest 322 371 15,500 -900 Descending FlightAware
10:20PM -20.0430 -54.0880 238° Southwest 292 336 15,100 -540 Descending FlightAware
10:20PM -20.0700 -54.1340 238° Southwest 264 304 14,800 -540 Descending FlightAware
10:21PM -20.0980 -54.1810 238° Southwest 235 270 14,400 -600 Descending FlightAware
10:22PM -20.1200 -54.2200 239° Southwest 209 241 14,000 -600 Descending FlightAware
10:22PM -20.1410 -54.2550 237° Southwest 187 215 13,600 -660 Descending FlightAware
10:23PM -20.1550 -54.2790 238° Southwest 172 198 13,200 -960 Descending FlightAware
10:24PM -20.1740 -54.3120 238° Southwest 164 189 12,400 -1,020 Descending FlightAware
10:24PM -20.1890 -54.3380 238° Southwest 158 182 11,800 -960 Descending FlightAware
10:25PM -20.2030 -54.3630 239° Southwest 152 175 11,200 -1,680 Descending FlightAware
10:26PM -20.2200 -54.3910 237° Southwest 186 214 9,700 -2,040 Descending FlightAware
10:26PM -20.2330 -54.4130 238° Southwest 203 234 8,900 -1,500 Descending FlightAware
10:27PM -20.2470 -54.4370 238° Southwest 201 231 8,300 -1,200 Descending FlightAware
10:27PM -20.2530 -54.4470 237° Southwest 198 228 8,100 -1,080 Descending FlightAware
10:27PM -20.2660 -54.4700 239° Southwest 194 223 7,600 -1,080 Descending FlightAware
10:28PM -20.2820 -54.4930 233° Southwest 186 214 7,100 -1,080 Descending FlightAware
10:28PM -20.2920 -54.5020 220° Southwest 182 209 6,800 -1,380 Descending FlightAware
10:28PM -20.3090 -54.5190 223° Southwest 184 212 6,100 -1,800 Descending FlightAware
10:29PM -20.3160 -54.5260 223° Southwest 186 214 5,600 -1,800 Descending FlightAware
10:29PM -20.3340 -54.5440 223° Southwest 180 207 4,900 -1,440 Descending FlightAware
10:30PM -20.3510 -54.5590 220° Southwest 161 185 4,300 -1,080 Descending FlightAware
10:30PM -20.3570 -54.5650 223° Southwest 152 175 4,200 -720 Descending FlightAware
10:30PM -20.3690 -54.5760 221° Southwest 145 167 3,900 -840 Descending FlightAware
10:31PM -20.3830 -54.5900 223° Southwest 144 166 3,500 -780 Descending FlightAware
10:31PM -20.3960 -54.6020 221° Southwest 135 155 3,200 -720 Descending FlightAware
10:32PM -20.4080 -54.6150 225° Southwest 130 150 2,900 -780 Descending FlightAware
10:32PM -20.4220 -54.6280 221° Southwest 132 152 2,500 -780 Descending FlightAware
10:33PM -20.4350 -54.6400 221° Southwest 133 153 2,200 -660 Descending FlightAware
10:33PM -20.4480 -54.6520 221° Southwest 133 153 1,900 -780 Descending FlightAware
10:33PM -20.4540 -54.6580 223° Southwest 135 155 1,700 -960 Descending FlightAware
10:34PM -20.4670 -54.6710 223° Southwest 115 132 -3,660 Descending FlightAware
10:35PM -20.4690 -54.6750 242° Southwest 26 30  Level FlightAware
10:35PM -20.4670 -54.6740 25° Northeast 17 20  Level FlightAware
10:36PM -20.4660 -54.6720 62° Northeast 17 20  Level FlightAware
10:36PM -20.4650 -54.6720 360° North 17 20  Level FlightAware
10:36PM -20.4630 -54.6700 43° Northeast 18 21  Level FlightAware
10:37PM -20.4610 -54.6680 43° Northeast 18 21  Level FlightAware
10:37PM -20.4610 -54.6670 90° East 17 20  Level FlightAware
10:38PM -20.4580 -54.6670 360° North 29 33  Level FlightAware
10:38PM -20.4580 -54.6680 270° West 29 33  Level FlightAware
10:41PM -20.4687 -54.6725 202° Southwest  Level Estimated
10:42PM -20.4687 -54.6725 343° North  Level Estimated
10:43PM -20.4687 -54.6725 343° North  Level Estimated
10:44PM -20.4687 -54.6725 343° North  Level Estimated
10:45PM -20.4687 -54.6725 343° North  Level Estimated
10:46PM -20.4687 -54.6725 343° North  Level Estimated
10:47PM -20.4687 -54.6725 343° North  Level Estimated
10:48PM -20.4687 -54.6725 343° North  Level Estimated
10:49PM -20.4687 -54.6725 343° North  Level Estimated
10:50PM -20.4687 -54.6725 343° North  Level Estimated
10:51PM -20.4687 -54.6725 343° North  Level Estimated
10:52PM -20.4687 -54.6725 343° North  Level Estimated
10:53PM -20.4687 -54.6725 343° North  Level Estimated
10:54PM -20.4687 -54.6725 343° North  Level Estimated
10:55PM -20.4687 -54.6725 343° North  Level Estimated
10:56PM -20.4687 -54.6725 343° North  Level Estimated
10:57PM -20.4687 -54.6725 343° North  Level Estimated
10:58PM -20.4687 -54.6725 343° North  Level Estimated
10:59PM -20.4687 -54.6725 343° North  Level Estimated
11:00PM -20.4687 -54.6725 343° North  Level Estimated
11:01PM -20.4687 -54.6725 343° North  Level Estimated
11:02PM -20.4687 -54.6725 343° North  Level Estimated
11:03PM -20.4687 -54.6725 343° North  Level Estimated
11:04PM -20.4687 -54.6725 343° North  Level Estimated
11:05PM -20.4687 -54.6725 343° North  Level Estimated